Time;durP1;ratioP1;P1;durP2;ratioP2;P2;SDS_P1;SDS_P2;PMS_P1;PMS_P2;Temp;Humidity;BMP_temperature;BMP_pressure;BME280_temperature;BME280_humidity;BME280_pressure;Samples;Min_cycle;Max_cycle;Signal;HPM_P1;HPM_P2
2024/01/06 00:01:23;;;;;;;113.35;44.15;;;;;;;5.16;84.44;94976.03;5035964;28;20036;-82
2024/01/06 00:03:49;;;;;;;104.68;41.60;;;;;;;5.92;83.80;95082.97;5024487;28;20033;-83
2024/01/06 00:06:14;;;;;;;102.05;42.58;;;;;;;5.65;83.62;95037.34;5017251;28;20037;-83
2024/01/06 00:08:40;;;;;;;98.60;42.03;;;;;;;5.56;83.21;95007.28;5015821;28;20015;-83
2024/01/06 00:11:06;;;;;;;105.78;43.53;;;;;;;5.72;83.39;95011.66;5031819;28;20052;-82
2024/01/06 00:13:31;;;;;;;96.55;41.55;;;;;;;5.77;83.64;95019.59;5019116;28;20033;-83
2024/01/06 00:15:57;;;;;;;106.20;44.90;;;;;;;5.74;83.53;94999.84;5015968;28;20151;-82
2024/01/06 00:18:22;;;;;;;91.95;42.10;;;;;;;5.78;82.94;95022.00;5015497;28;20022;-83
2024/01/06 00:20:48;;;;;;;94.13;41.42;;;;;;;5.52;82.56;95000.91;5016207;28;20034;-82
2024/01/06 00:23:13;;;;;;;103.53;41.95;;;;;;;5.87;82.66;95048.69;5016362;28;20101;-83
2024/01/06 00:25:39;;;;;;;101.57;42.38;;;;;;;6.00;82.71;95076.47;5020347;28;20041;-82
2024/01/06 00:28:05;;;;;;;103.30;41.70;;;;;;;5.88;83.10;95060.00;5030537;28;20033;-83
2024/01/06 00:30:30;;;;;;;94.60;41.90;;;;;;;5.66;82.51;95021.31;5015679;28;20030;-83
2024/01/06 00:32:56;;;;;;;98.18;41.00;;;;;;;5.36;83.15;94995.47;5024021;28;20089;-83
2024/01/06 00:35:21;;;;;;;98.32;41.38;;;;;;;5.07;82.95;94933.59;5027823;28;20040;-83
2024/01/06 00:37:47;;;;;;;105.90;44.80;;;;;;;5.44;82.80;95017.91;5016183;28;20045;-83
2024/01/06 00:40:13;;;;;;;93.53;42.17;;;;;;;5.71;82.85;95046.91;5027037;28;20054;-83
2024/01/06 00:42:38;;;;;;;110.00;44.30;;;;;;;5.79;83.07;95059.63;5029191;28;20557;-81
2024/01/06 00:45:05;;;;;;;89.65;43.13;;;;;;;5.27;83.51;94977.72;5001023;28;20035;-81
2024/01/06 00:47:31;;;;;;;106.75;46.15;;;;;;;5.20;83.96;94996.31;5008882;28;20562;-81
2024/01/06 00:49:56;;;;;;;105.05;44.70;;;;;;;5.38;83.43;94997.84;5013405;28;20113;-81
2024/01/06 00:52:22;;;;;;;109.63;44.10;;;;;;;5.93;83.12;95058.25;5025042;23;20053;-86
2024/01/06 00:54:47;;;;;;;96.28;42.25;;;;;;;4.98;83.24;94896.44;5000958;28;20030;-86
2024/01/06 00:57:13;;;;;;;103.80;45.95;;;;;;;5.77;82.55;95067.78;5002647;28;20041;-85
2024/01/06 00:59:38;;;;;;;98.40;44.97;;;;;;;5.62;83.28;95043.13;5003021;28;20057;-86
2024/01/06 01:02:04;;;;;;;120.32;48.85;;;;;;;4.51;83.28;94900.53;5000796;22;20836;-79
2024/01/06 01:04:30;;;;;;;108.13;44.97;;;;;;;3.98;83.07;94844.16;4996904;28;20062;-79
2024/01/06 01:06:55;;;;;;;104.85;45.60;;;;;;;4.82;84.03;94938.53;4995897;28;20109;-79
2024/01/06 01:09:21;;;;;;;100.55;44.53;;;;;;;5.43;83.88;95048.66;4983398;28;20045;-80
2024/01/06 01:11:46;;;;;;;105.53;46.20;;;;;;;5.68;83.63;95069.25;5015656;28;20036;-80
2024/01/06 01:14:12;;;;;;;101.47;45.63;;;;;;;5.72;83.52;95072.19;4990952;28;20038;-79
2024/01/06 01:16:37;;;;;;;91.03;45.20;;;;;;;5.21;83.74;95015.50;4977768;28;20038;-79
2024/01/06 01:19:03;;;;;;;109.93;46.17;;;;;;;5.34;84.03;95062.50;5026327;23;20074;-88
2024/01/06 01:21:28;;;;;;;103.72;45.70;;;;;;;1.91;84.17;94499.31;5025708;23;20121;-86
2024/01/06 01:23:54;;;;;;;100.55;44.85;;;;;;;3.08;83.84;94689.66;5016299;28;20041;-86
2024/01/06 01:26:20;;;;;;;109.65;48.78;;;;;;;4.91;83.61;94961.50;5014870;28;20041;-84
2024/01/06 01:28:45;;;;;;;106.25;44.75;;;;;;;4.22;84.28;94865.75;5028853;28;20022;-87
2024/01/06 01:31:13;;;;;;;112.47;46.00;;;;;;;5.10;83.96;94985.69;5036623;28;20041;-86
2024/01/06 01:33:38;;;;;;;92.80;44.67;;;;;;;4.43;84.01;94899.13;5017662;28;20029;-86
2024/01/06 01:36:04;;;;;;;95.30;43.55;;;;;;;5.13;83.87;94994.91;5034632;28;20041;-86
2024/01/06 01:38:30;;;;;;;103.72;46.45;;;;;;;4.74;83.87;94920.53;5034196;28;20488;-86
2024/01/06 01:40:55;;;;;;;94.68;44.20;;;;;;;5.06;84.30;94989.81;5017448;28;20066;-86
2024/01/06 01:43:21;;;;;;;102.75;45.55;;;;;;;4.19;83.99;94842.63;5022860;28;20543;-86
2024/01/06 01:45:51;;;;;;;101.05;46.60;;;;;;;5.42;84.01;95038.38;5037983;28;20034;-86
2024/01/06 01:48:18;;;;;;;98.30;45.95;;;;;;;4.92;83.85;94970.19;5027375;28;20077;-86
2024/01/06 01:50:44;;;;;;;101.05;43.65;;;;;;;4.71;83.37;94924.47;5024197;28;20552;-86
2024/01/06 01:53:11;;;;;;;94.70;45.63;;;;;;;3.35;83.66;94706.34;5034122;28;20122;-86
2024/01/06 01:55:37;;;;;;;101.53;47.03;;;;;;;5.35;83.91;95030.69;5034064;28;20486;-86
2024/01/06 01:58:03;;;;;;;94.25;43.97;;;;;;;5.12;83.55;94980.97;5033237;28;20056;-86
2024/01/06 02:00:29;;;;;;;102.90;44.10;;;;;;;5.34;83.69;95020.44;5033844;28;20095;-86
2024/01/06 02:02:54;;;;;;;95.60;43.03;;;;;;;4.44;84.04;94884.16;5034102;28;20033;-86
2024/01/06 02:05:20;;;;;;;100.45;45.05;;;;;;;4.47;84.06;94881.88;5035753;28;20116;-86
2024/01/06 02:07:45;;;;;;;97.55;43.08;;;;;;;4.74;83.83;94920.53;5034537;28;20120;-87
2024/01/06 02:10:11;;;;;;;95.60;43.35;;;;;;;4.93;83.78;94972.59;5017831;28;20037;-87
2024/01/06 02:12:36;;;;;;;93.38;43.35;;;;;;;4.39;83.78;94882.28;5033114;28;20497;-88
2024/01/06 02:15:02;;;;;;;99.68;42.78;;;;;;;3.10;83.92;94664.81;5014235;28;20034;-88
2024/01/06 02:17:27;;;;;;;108.60;44.08;;;;;;;4.58;83.80;94888.03;5031672;28;20026;-88
2024/01/06 02:19:53;;;;;;;91.25;44.30;;;;;;;5.09;84.77;94981.47;5035853;28;20026;-88
2024/01/06 02:22:18;;;;;;;100.82;42.85;;;;;;;3.18;85.03;94666.25;5053871;28;20052;-87
2024/01/06 02:24:44;;;;;;;107.43;44.30;;;;;;;4.47;85.22;94855.59;5040756;28;20112;-87
2024/01/06 02:27:09;;;;;;;97.05;43.40;;;;;;;5.02;84.87;94939.59;5037523;28;20029;-87
2024/01/06 02:29:35;;;;;;;89.00;41.95;;;;;;;5.31;85.29;94986.72;5048452;28;20064;-88
2024/01/06 02:32:01;;;;;;;104.95;43.00;;;;;;;4.57;84.80;94862.81;5044633;28;20501;-86
2024/01/06 02:34:26;;;;;;;98.05;41.92;;;;;;;4.61;84.91;94832.41;5054417;28;20116;-86
2024/01/06 02:36:52;;;;;;;90.82;43.42;;;;;;;4.97;84.49;94910.59;5036770;28;20025;-87
2024/01/06 02:39:17;;;;;;;87.95;37.38;;;;;;;4.34;84.55;94816.59;5036114;28;20029;-87
2024/01/06 02:41:43;;;;;;;90.07;39.33;;;;;;;4.74;84.88;94887.19;5054130;28;20037;-87
2024/01/06 02:44:08;;;;;;;77.55;38.97;;;;;;;4.40;84.41;94822.69;5041360;28;20044;-87
2024/01/06 02:46:34;;;;;;;79.60;37.75;;;;;;;4.90;84.53;94898.69;5049625;28;20033;-86
2024/01/06 02:48:59;;;;;;;71.72;35.92;;;;;;;4.88;84.68;94877.91;5038923;28;20045;-86
2024/01/06 02:51:25;;;;;;;77.03;35.10;;;;;;;4.64;84.12;94845.06;5033645;28;20118;-86
2024/01/06 02:53:50;;;;;;;84.72;35.10;;;;;;;5.34;83.43;94971.22;5018633;28;20029;-87
2024/01/06 02:56:16;;;;;;;71.85;33.58;;;;;;;5.25;83.03;94946.44;5036730;28;20043;-86
2024/01/06 02:58:41;;;;;;;76.35;34.40;;;;;;;5.05;82.89;94885.72;5037318;28;20111;-86
2024/01/06 03:01:07;;;;;;;70.07;33.13;;;;;;;5.08;82.86;94871.31;5036182;28;20453;-86
2024/01/06 03:03:32;;;;;;;80.45;34.47;;;;;;;5.09;81.73;94892.09;5037237;28;20025;-86
2024/01/06 03:05:58;;;;;;;75.07;31.10;;;;;;;5.40;82.55;94935.28;5055604;28;20029;-86
2024/01/06 03:08:23;;;;;;;71.88;29.60;;;;;;;5.02;82.31;94866.00;5037638;28;20140;-87
2024/01/06 03:10:49;;;;;;;57.28;26.23;;;;;;;5.41;81.12;94936.88;5038469;28;20043;-86
2024/01/06 03:13:15;;;;;;;55.70;27.00;;;;;;;4.85;81.62;94836.38;5038811;28;20096;-86
2024/01/06 03:15:40;;;;;;;63.08;25.70;;;;;;;5.23;81.23;94893.28;5040530;28;20143;-86
2024/01/06 03:18:06;;;;;;;61.70;25.65;;;;;;;4.30;80.89;94773.47;5029933;28;20037;-87
2024/01/06 03:20:31;;;;;;;58.28;24.45;;;;;;;5.50;81.19;94947.75;5049805;28;20056;-86
2024/01/06 03:22:57;;;;;;;61.15;28.00;;;;;;;5.13;81.67;94884.50;5044649;28;20527;-86
2024/01/06 03:25:22;;;;;;;60.67;26.65;;;;;;;4.77;81.57;94815.00;5034646;28;20475;-86
2024/01/06 03:27:48;;;;;;;61.88;28.10;;;;;;;5.51;81.17;94920.41;5055010;28;20033;-86
2024/01/06 03:30:13;;;;;;;67.13;30.13;;;;;;;4.33;80.96;94724.94;5055392;28;20443;-87
2024/01/06 03:32:39;;;;;;;61.35;29.77;;;;;;;5.47;81.08;94916.69;5036963;28;20033;-87
2024/01/06 03:35:06;;;;;;;61.60;29.15;;;;;;;4.72;81.07;94831.50;5035409;28;20050;-87
2024/01/06 03:37:32;;;;;;;63.53;28.02;;;;;;;4.52;81.20;94782.13;5037241;28;20143;-86
2024/01/06 03:39:58;;;;;;;64.22;26.63;;;;;;;4.49;81.02;94766.09;5036196;28;20032;-85
2024/01/06 03:42:23;;;;;;;58.13;28.02;;;;;;;5.42;80.65;94896.38;5048822;28;20439;-88
2024/01/06 03:44:49;;;;;;;59.78;26.27;;;;;;;5.31;80.67;94906.00;5023404;28;20040;-88
2024/01/06 03:47:15;;;;;;;54.30;25.17;;;;;;;4.41;80.68;94769.94;5028823;28;20048;-88
2024/01/06 03:49:40;;;;;;;58.45;23.23;;;;;;;5.48;80.94;94928.81;5016346;28;20041;-87
2024/01/06 03:52:06;;;;;;;54.28;24.77;;;;;;;5.14;81.04;94868.47;5033524;28;20480;-87
2024/01/06 03:54:31;;;;;;;52.72;24.48;;;;;;;5.41;81.00;94910.59;5045115;28;20041;-88
2024/01/06 03:56:57;;;;;;;63.25;27.40;;;;;;;5.44;81.35;94920.59;5036055;28;20136;-87
2024/01/06 03:59:22;;;;;;;58.20;26.65;;;;;;;5.44;81.33;94923.22;5041288;28;20043;-87
2024/01/06 04:01:47;;;;;;;82.70;32.15;;;;;;;5.46;81.75;94922.97;5015452;28;20056;-87
2024/01/06 04:04:13;;;;;;;59.03;25.48;;;;;;;4.57;81.72;94839.19;5051564;28;20039;-88
2024/01/06 04:06:39;;;;;;;62.75;27.48;;;;;;;3.77;82.02;94705.88;5036610;28;20053;-88
2024/01/06 04:09:05;;;;;;;64.40;30.73;;;;;;;4.57;82.01;94849.69;5019965;28;20033;-88
2024/01/06 04:11:30;;;;;;;55.38;26.73;;;;;;;4.89;82.05;94882.13;5016791;28;20136;-88
2024/01/06 04:13:56;;;;;;;72.35;29.23;;;;;;;4.75;81.61;94841.50;5016789;28;20026;-88
2024/01/06 04:16:22;;;;;;;70.68;28.38;;;;;;;5.28;81.54;94927.53;5036431;28;20579;-88
2024/01/06 04:18:47;;;;;;;53.83;25.33;;;;;;;5.12;81.95;94907.34;5036984;28;20013;-88
2024/01/06 04:21:13;;;;;;;48.30;24.75;;;;;;;5.22;81.92;94899.59;5034539;28;20068;-88
2024/01/06 04:23:39;;;;;;;55.47;25.30;;;;;;;2.95;81.43;94551.97;5043927;28;20025;-85
2024/01/06 04:26:05;;;;;;;54.40;24.63;;;;;;;5.25;81.44;94916.72;5040046;28;20392;-85
2024/01/06 04:28:30;;;;;;;58.22;27.10;;;;;;;4.74;81.50;94862.75;5058376;28;20032;-87
2024/01/06 04:30:56;;;;;;;55.33;24.55;;;;;;;4.50;81.77;94825.44;5039924;28;20032;-88
2024/01/06 04:33:21;;;;;;;66.18;25.77;;;;;;;4.65;81.85;94870.28;5040067;28;20033;-86
2024/01/06 04:35:47;;;;;;;58.72;26.00;;;;;;;4.19;81.39;94816.38;5039771;28;20064;-86
2024/01/06 04:38:12;;;;;;;52.83;25.63;;;;;;;3.93;81.28;94761.97;5024792;28;20030;-86
2024/01/06 04:40:38;;;;;;;57.70;26.15;;;;;;;5.01;81.34;94924.06;5019224;28;20040;-86
2024/01/06 04:43:03;;;;;;;67.68;27.20;;;;;;;4.23;80.67;94801.72;5035239;28;20497;-86
2024/01/06 04:45:29;;;;;;;51.40;25.25;;;;;;;4.38;80.94;94801.91;5057289;28;20040;-86
2024/01/06 04:47:54;;;;;;;47.42;24.38;;;;;;;3.94;80.52;94755.69;5038807;28;20029;-86
2024/01/06 04:50:20;;;;;;;49.72;22.80;;;;;;;4.38;80.75;94824.75;5038670;28;20091;-87
2024/01/06 04:52:46;;;;;;;55.47;26.38;;;;;;;5.09;80.42;94923.63;5056992;28;20074;-88
2024/01/06 04:55:12;;;;;;;52.63;25.88;;;;;;;5.05;80.65;94927.78;5036352;28;20174;-87
2024/01/06 04:57:37;;;;;;;94.65;42.83;;;;;;;4.57;80.37;94866.25;5036992;28;20028;-88
2024/01/06 05:00:04;;;;;;;113.95;49.75;;;;;;;5.00;81.01;94931.16;5019031;28;20029;-88
2024/01/06 05:02:30;;;;;;;104.38;48.33;;;;;;;4.59;80.84;94835.25;5026624;28;20024;-88
2024/01/06 05:04:55;;;;;;;89.07;42.70;;;;;;;4.99;80.85;94958.47;5038773;28;20554;-88
2024/01/06 05:07:21;;;;;;;75.93;36.38;;;;;;;4.69;81.05;94902.09;5039146;28;20028;-87
2024/01/06 05:09:47;;;;;;;90.10;41.03;;;;;;;4.53;81.54;94859.88;5054537;28;20033;-87
2024/01/06 05:12:12;;;;;;;90.75;42.08;;;;;;;4.89;82.71;94913.66;5042591;28;20045;-88
2024/01/06 05:14:38;;;;;;;94.22;40.90;;;;;;;4.11;82.12;94806.31;5018835;28;20034;-88
2024/01/06 05:17:03;;;;;;;96.03;38.75;;;;;;;4.29;81.98;94821.75;5034221;28;20029;-88
2024/01/06 05:19:29;;;;;;;87.43;37.92;;;;;;;4.89;81.82;94911.03;5038434;28;20436;-88
2024/01/06 05:21:55;;;;;;;74.55;33.80;;;;;;;4.35;81.65;94833.91;5056075;28;20056;-88
2024/01/06 05:24:20;;;;;;;60.15;29.60;;;;;;;4.77;81.91;94910.34;5037408;28;20029;-88
2024/01/06 05:26:46;;;;;;;66.53;27.05;;;;;;;4.62;81.35;94855.81;5056482;28;20045;-88
2024/01/06 05:29:11;;;;;;;60.65;27.05;;;;;;;3.88;81.96;94775.81;5038555;28;20021;-87
2024/01/06 05:31:37;;;;;;;50.28;23.95;;;;;;;4.10;81.18;94783.72;5037781;28;20210;-88
2024/01/06 05:34:02;;;;;;;59.03;23.95;;;;;;;4.21;81.06;94783.59;5033467;28;20021;-88
2024/01/06 05:36:28;;;;;;;33.63;15.88;;;;;;;4.75;79.57;94873.03;5025980;28;20044;-88
2024/01/06 05:38:53;;;;;;;32.53;11.30;;;;;;;3.78;79.71;94742.34;5031163;28;20021;-87
2024/01/06 05:41:19;;;;;;;17.50;8.98;;;;;;;4.94;78.69;94905.84;5045355;28;20029;-87
2024/01/06 05:43:44;;;;;;;19.38;7.50;;;;;;;4.82;78.39;94865.75;5045984;28;20091;-86
2024/01/06 05:46:10;;;;;;;18.17;8.15;;;;;;;4.06;76.97;94757.16;5018944;28;20067;-85
2024/01/06 05:48:36;;;;;;;18.30;7.15;;;;;;;4.45;76.44;94823.53;5031497;28;20079;-86
2024/01/06 05:51:05;;;;;;;17.40;7.85;;;;;;;3.61;75.82;94685.72;5037490;28;20577;-86
2024/01/06 05:53:31;;;;;;;19.45;7.75;;;;;;;4.87;75.85;94878.16;5037876;28;20040;-86
2024/01/06 05:55:56;;;;;;;19.60;7.35;;;;;;;4.08;75.48;94773.44;5038015;28;20116;-86
2024/01/06 05:58:22;;;;;;;14.55;6.82;;;;;;;5.12;76.26;94894.22;5056047;28;20036;-86
2024/01/06 06:00:47;;;;;;;16.40;6.80;;;;;;;4.75;75.63;94838.88;5037646;28;20050;-86
2024/01/06 06:03:13;;;;;;;18.25;7.78;;;;;;;4.93;75.00;94866.69;5038387;28;20381;-87
2024/01/06 06:05:38;;;;;;;20.23;8.20;;;;;;;4.42;75.43;94771.53;5056762;28;20527;-87
2024/01/06 06:08:04;;;;;;;17.42;7.50;;;;;;;5.29;74.88;94913.34;5040049;28;20024;-87
2024/01/06 06:10:40;;;;;;;15.95;7.22;;;;;;;5.12;74.39;94862.66;5035215;28;20116;-87
2024/01/06 06:13:07;;;;;;;15.57;6.72;;;;;;;5.04;73.89;94855.22;5037630;28;20018;-87
2024/01/06 06:15:32;;;;;;;13.93;7.00;;;;;;;5.19;73.58;94879.03;5028707;28;20036;-87
2024/01/06 06:18:00;;;;;;;15.10;7.07;;;;;;;4.49;74.21;94798.41;5057623;28;20380;-86
2024/01/06 06:20:25;;;;;;;14.07;6.95;;;;;;;4.24;74.63;94769.19;5033585;28;20084;-87
2024/01/06 06:22:51;;;;;;;15.15;6.90;;;;;;;3.97;74.47;94732.34;5033153;28;20033;-87
2024/01/06 06:25:17;;;;;;;17.50;7.00;;;;;;;4.93;74.69;94861.41;5057113;28;20029;-86
2024/01/06 06:27:42;;;;;;;11.50;6.25;;;;;;;4.14;74.50;94730.47;5038812;28;20029;-87
2024/01/06 06:30:08;;;;;;;15.68;7.03;;;;;;;4.83;74.76;94829.75;5038887;28;20031;-86
2024/01/06 06:32:33;;;;;;;17.40;6.75;;;;;;;4.69;74.39;94792.56;5038623;28;20033;-87
2024/01/06 06:34:59;;;;;;;19.85;6.53;;;;;;;4.85;73.99;94825.06;5037251;28;20048;-87
2024/01/06 06:37:24;;;;;;;20.17;7.07;;;;;;;5.38;73.16;94897.91;5018272;28;20041;-87
2024/01/06 06:39:50;;;;;;;31.77;7.47;;;;;;;5.13;73.32;94860.84;5040110;28;20032;-87
2024/01/06 06:42:15;;;;;;;21.10;8.20;;;;;;;4.54;72.94;94781.91;5034412;28;20055;-87
2024/01/06 06:44:41;;;;;;;26.02;9.45;;;;;;;5.24;73.16;94865.97;5025183;28;20036;-86
2024/01/06 06:47:06;;;;;;;21.73;8.32;;;;;;;5.08;73.37;94863.41;5038617;28;20040;-87
2024/01/06 06:49:32;;;;;;;30.75;8.38;;;;;;;4.72;74.38;94839.38;5040426;28;20043;-87
2024/01/06 06:51:58;;;;;;;18.30;7.30;;;;;;;5.22;73.97;94923.25;5039863;28;20051;-87
2024/01/06 06:54:23;;;;;;;19.15;7.50;;;;;;;4.57;74.05;94803.22;5036872;28;20063;-86
2024/01/06 06:56:49;;;;;;;22.92;8.02;;;;;;;4.89;73.67;94841.91;5043465;28;20408;-87
2024/01/06 06:59:14;;;;;;;34.15;9.82;;;;;;;5.03;74.28;94854.41;5030371;28;20506;-86
2024/01/06 07:01:40;;;;;;;29.42;9.45;;;;;;;5.25;73.87;94891.22;5040151;28;20041;-86
2024/01/06 07:04:05;;;;;;;36.72;9.25;;;;;;;5.07;73.98;94846.84;5035438;28;20044;-86
2024/01/06 07:06:31;;;;;;;32.10;10.10;;;;;;;4.74;73.68;94790.00;5033037;28;20046;-87
2024/01/06 07:08:57;;;;;;;27.13;9.50;;;;;;;4.14;73.64;94725.22;5055296;28;20131;-87
2024/01/06 07:11:22;;;;;;;26.98;9.20;;;;;;;4.12;74.61;94695.03;5036514;28;20069;-86
2024/01/06 07:13:49;;;;;;;32.05;9.70;;;;;;;4.93;73.98;94843.03;5036547;28;20032;-86
2024/01/06 07:16:14;;;;;;;26.02;8.43;;;;;;;5.19;74.49;94884.28;5052228;28;20500;-86
2024/01/06 07:18:40;;;;;;;24.70;8.98;;;;;;;5.41;74.49;94898.22;5034367;28;20024;-86
2024/01/06 07:21:09;;;;;;;28.85;8.93;;;;;;;4.28;74.67;94736.16;5040309;28;20048;-86
2024/01/06 07:23:35;;;;;;;21.08;9.35;;;;;;;5.04;75.62;94840.25;5054466;28;20036;-86
2024/01/06 07:26:00;;;;;;;24.38;7.68;;;;;;;4.38;74.55;94753.88;5037330;28;20029;-86
2024/01/06 07:28:27;;;;;;;26.50;8.10;;;;;;;5.39;74.94;94884.53;5036239;28;20132;-85
2024/01/06 07:30:52;;;;;;;22.98;8.35;;;;;;;5.37;74.92;94912.09;5024593;28;20048;-86
2024/01/06 07:33:18;;;;;;;17.70;7.38;;;;;;;4.97;74.57;94834.38;5023299;28;20032;-86
2024/01/06 07:35:43;;;;;;;30.33;9.32;;;;;;;5.04;74.18;94823.69;5055952;28;20032;-86
2024/01/06 07:38:12;;;;;;;31.08;8.75;;;;;;;5.60;73.71;94892.59;5020877;28;20029;-86
2024/01/06 07:40:38;;;;;;;20.67;8.57;;;;;;;5.47;74.05;94871.97;5017707;28;20060;-86
2024/01/06 07:43:04;;;;;;;20.00;9.20;;;;;;;5.36;73.54;94871.06;5036053;28;20033;-87
2024/01/06 07:45:31;;;;;;;23.15;8.30;;;;;;;5.42;74.53;94860.34;5055095;28;20033;-85
2024/01/06 07:47:59;;;;;;;38.15;10.82;;;;;;;4.46;74.82;94745.56;5037176;28;20542;-86
2024/01/06 07:50:26;;;;;;;24.30;9.18;;;;;;;5.43;75.06;94876.94;5036491;28;20028;-85
2024/01/06 07:52:51;;;;;;;37.50;10.88;;;;;;;5.41;74.92;94895.59;5056002;28;20396;-86
2024/01/06 07:55:18;;;;;;;27.23;9.90;;;;;;;5.18;74.59;94816.22;5056227;28;20032;-86
2024/01/06 07:57:44;;;;;;;27.95;9.52;;;;;;;5.25;74.22;94824.69;5021666;28;20025;-85
2024/01/06 08:00:14;;;;;;;48.30;11.02;;;;;;;5.07;74.29;94783.78;5009687;28;20093;-86
2024/01/06 08:02:40;;;;;;;37.83;10.18;;;;;;;5.24;73.91;94778.41;5021609;28;20040;-87
2024/01/06 08:05:06;;;;;;;36.60;10.75;;;;;;;5.87;73.82;94916.28;5040067;28;20049;-87
2024/01/06 08:07:32;;;;;;;26.23;10.35;;;;;;;5.90;73.29;94882.38;5036287;28;20495;-86
2024/01/06 08:09:58;;;;;;;33.50;11.00;;;;;;;4.48;73.41;94673.38;5025939;28;20067;-87
2024/01/06 08:12:23;;;;;;;35.25;12.10;;;;;;;5.32;73.84;94807.69;5029387;28;20038;-87
2024/01/06 08:14:49;;;;;;;33.53;11.75;;;;;;;4.69;73.07;94673.56;5021274;28;20033;-87
2024/01/06 08:17:15;;;;;;;32.33;10.98;;;;;;;5.51;73.52;94838.84;5040475;28;20041;-87
2024/01/06 08:19:41;;;;;;;33.85;12.52;;;;;;;4.58;74.02;94667.41;5038583;28;20561;-86
2024/01/06 08:22:07;;;;;;;41.80;13.48;;;;;;;5.70;73.67;94840.09;5023096;28;20041;-87
2024/01/06 08:24:33;;;;;;;58.92;18.15;;;;;;;5.67;74.33;94870.31;5039939;28;20096;-87
2024/01/06 08:26:59;;;;;;;55.78;18.52;;;;;;;5.77;74.85;94866.97;5033584;28;20547;-86
2024/01/06 08:29:25;;;;;;;55.30;23.38;;;;;;;4.89;74.84;94740.22;5039574;28;20033;-87
2024/01/06 08:31:52;;;;;;;75.05;32.80;;;;;;;4.98;74.69;94720.34;5030271;28;20025;-86
2024/01/06 08:34:18;;;;;;;80.50;31.08;;;;;;;5.60;74.68;94829.47;5048445;28;20035;-86
2024/01/06 08:36:44;;;;;;;68.72;29.35;;;;;;;5.10;75.60;94790.38;5058069;28;20028;-87
2024/01/06 08:39:09;;;;;;;78.63;30.83;;;;;;;5.21;75.93;94763.13;5057729;28;20052;-86
2024/01/06 08:41:35;;;;;;;74.35;32.30;;;;;;;5.42;75.42;94805.13;5024166;28;20037;-87
2024/01/06 08:44:00;;;;;;;92.82;33.67;;;;;;;5.78;75.59;94842.25;5041146;28;20400;-87
2024/01/06 08:46:26;;;;;;;89.95;35.97;;;;;;;6.09;74.77;94862.53;5037053;28;20033;-86
2024/01/06 08:48:52;;;;;;;89.00;38.35;;;;;;;5.60;75.14;94782.13;5022619;28;20036;-86
2024/01/06 08:51:17;;;;;;;95.13;37.83;;;;;;;6.02;74.58;94848.00;5023195;28;20036;-86
2024/01/06 08:53:43;;;;;;;98.22;38.33;;;;;;;4.86;74.29;94679.53;5055184;28;20033;-86
2024/01/06 08:56:09;;;;;;;72.63;34.78;;;;;;;6.16;73.92;94842.03;5035648;28;20075;-86
2024/01/06 08:58:34;;;;;;;83.43;34.30;;;;;;;6.34;73.17;94861.88;5036759;28;20033;-86
2024/01/06 09:01:00;;;;;;;77.72;34.88;;;;;;;5.29;73.59;94741.63;5041709;28;20036;-86
2024/01/06 09:03:25;;;;;;;77.38;36.78;;;;;;;5.65;73.09;94755.84;5039218;28;20066;-86
2024/01/06 09:05:56;;;;;;;82.95;36.40;;;;;;;5.42;73.05;94725.44;5049181;28;20033;-86
2024/01/06 09:08:23;;;;;;;87.18;36.03;;;;;;;5.49;72.99;94701.56;5021418;28;20033;-86
2024/01/06 09:10:51;;;;;;;75.60;35.38;;;;;;;6.16;72.40;94818.34;5049575;28;20057;-86
2024/01/06 09:13:17;;;;;;;76.93;35.00;;;;;;;5.99;72.74;94777.44;5039362;28;20118;-86
2024/01/06 09:15:43;;;;;;;73.60;32.65;;;;;;;6.38;72.51;94823.47;5044381;28;20029;-86
2024/01/06 09:18:09;;;;;;;76.50;32.72;;;;;;;5.54;72.25;94698.97;5046914;28;20036;-86
2024/01/06 09:20:35;;;;;;;67.10;28.58;;;;;;;6.24;72.46;94803.91;5038801;28;20056;-86
2024/01/06 09:23:00;;;;;;;50.42;24.08;;;;;;;6.07;71.76;94769.06;5023456;28;20033;-86
2024/01/06 09:25:26;;;;;;;45.60;21.70;;;;;;;5.64;71.23;94723.50;5021977;28;20029;-87
2024/01/06 09:27:53;;;;;;;60.13;24.00;;;;;;;5.79;71.25;94718.34;5058321;28;20036;-86
2024/01/06 09:30:18;;;;;;;52.83;21.80;;;;;;;6.43;70.39;94822.69;5059159;28;20043;-86
2024/01/06 09:32:44;;;;;;;60.05;21.98;;;;;;;6.43;71.03;94791.88;5039510;28;20029;-85
2024/01/06 09:35:10;;;;;;;52.63;22.55;;;;;;;5.48;70.71;94626.34;5035343;28;20037;-85
2024/01/06 09:37:35;;;;;;;64.97;23.20;;;;;;;6.07;70.75;94748.00;5026674;28;20098;-85
2024/01/06 09:40:01;;;;;;;60.67;25.20;;;;;;;6.14;71.04;94740.66;5033677;28;20090;-84
2024/01/06 09:42:26;;;;;;;46.35;20.48;;;;;;;6.33;71.00;94764.72;5027970;28;20044;-86
2024/01/06 09:44:52;;;;;;;56.30;22.17;;;;;;;6.31;71.03;94777.34;5029246;28;20083;-85
2024/01/06 09:47:18;;;;;;;46.40;20.88;;;;;;;5.15;70.79;94551.22;5029725;28;20029;-85
2024/01/06 09:49:49;;;;;;;47.38;22.23;;;;;;;6.27;72.02;94795.47;5027077;28;20060;-86
2024/01/06 09:52:19;;;;;;;49.40;24.20;;;;;;;6.19;71.34;94738.03;5036661;28;20499;-85
2024/01/06 09:54:52;;;;;;;49.47;21.02;;;;;;;5.96;72.07;94738.44;5054154;28;20040;-85
2024/01/06 09:57:18;;;;;;;53.42;22.02;;;;;;;6.23;72.48;94746.22;5020452;28;20075;-85
2024/01/06 09:59:47;;;;;;;50.28;22.33;;;;;;;6.66;71.71;94782.75;5056226;28;20040;-85
2024/01/06 10:02:16;;;;;;;56.33;21.42;;;;;;;5.97;71.01;94626.84;5037819;28;20040;-85
2024/01/06 10:04:44;;;;;;;44.30;20.70;;;;;;;5.95;71.48;94713.19;5038947;28;20032;-86
2024/01/06 10:07:12;;;;;;;50.03;22.67;;;;;;;5.91;71.83;94660.25;5033770;28;20057;-85
2024/01/06 10:09:38;;;;;;;46.10;20.27;;;;;;;4.60;71.55;94452.63;5043320;28;20196;-85
2024/01/06 10:12:04;;;;;;;43.70;21.05;;;;;;;6.64;71.76;94803.28;5056573;28;20079;-86
2024/01/06 10:14:29;;;;;;;53.10;22.08;;;;;;;5.74;70.96;94596.47;5037476;28;20033;-84
2024/01/06 10:16:55;;;;;;;43.90;19.55;;;;;;;4.82;70.52;94490.06;5038481;28;20037;-86
2024/01/06 10:19:21;;;;;;;38.45;19.17;;;;;;;6.19;71.31;94688.81;5037454;28;20495;-85
2024/01/06 10:21:46;;;;;;;38.92;17.75;;;;;;;6.67;71.03;94755.34;5055499;28;20149;-87
2024/01/06 10:24:12;;;;;;;35.47;16.35;;;;;;;6.62;70.54;94723.72;5055529;28;20064;-84
2024/01/06 10:26:38;;;;;;;41.13;17.50;;;;;;;6.12;69.62;94611.91;5056307;28;20100;-85
2024/01/06 10:29:04;;;;;;;43.03;17.05;;;;;;;4.80;70.34;94457.22;5056233;28;20029;-86
2024/01/06 10:31:30;;;;;;;54.65;18.23;;;;;;;6.48;69.91;94680.50;5036619;28;20033;-86
2024/01/06 10:33:56;;;;;;;42.85;17.40;;;;;;;6.41;69.17;94643.03;5038427;28;20048;-86
2024/01/06 10:36:26;;;;;;;33.30;18.48;;;;;;;5.98;68.63;94587.13;5038428;28;20121;-86
2024/01/06 10:38:52;;;;;;;44.03;17.20;;;;;;;6.95;70.00;94702.16;5032568;28;20028;-84
2024/01/06 10:41:19;;;;;;;50.95;23.33;;;;;;;7.00;69.16;94687.44;5023324;28;20044;-85
2024/01/06 10:43:46;;;;;;;44.78;21.98;;;;;;;6.45;68.94;94638.84;5037613;28;20031;-86
2024/01/06 10:46:14;;;;;;;39.00;18.15;;;;;;;7.05;68.67;94705.88;5054307;28;20083;-86
2024/01/06 10:48:44;;;;;;;52.85;21.42;;;;;;;6.61;68.86;94615.97;5055127;28;20044;-86
2024/01/06 10:51:10;;;;;;;46.08;21.05;;;;;;;7.01;69.10;94647.63;5036431;28;20095;-85
2024/01/06 10:53:38;;;;;;;40.50;21.20;;;;;;;6.54;68.68;94540.63;5036720;28;20100;-85
2024/01/06 10:56:10;;;;;;;50.20;21.27;;;;;;;7.63;67.65;94707.97;5055541;28;20059;-85
2024/01/06 10:58:42;;;;;;;48.85;22.10;;;;;;;7.00;67.20;94606.50;5039373;28;20043;-85
2024/01/06 11:01:09;;;;;;;47.67;20.20;;;;;;;7.43;67.00;94628.84;5052859;28;20032;-85
2024/01/06 11:03:36;;;;;;;46.20;21.73;;;;;;;7.28;66.97;94591.94;5035649;28;20029;-85
2024/01/06 11:06:03;;;;;;;51.58;22.77;;;;;;;7.39;66.42;94643.66;5019266;28;20037;-86
2024/01/06 11:08:30;;;;;;;53.15;22.50;;;;;;;7.15;66.66;94569.56;5037266;28;20029;-85
2024/01/06 11:10:56;;;;;;;55.28;23.10;;;;;;;7.15;67.03;94542.41;5031598;28;20033;-86
2024/01/06 11:13:23;;;;;;;45.25;17.75;;;;;;;7.77;66.61;94663.38;5023197;28;20036;-85
2024/01/06 11:15:53;;;;;;;36.92;18.52;;;;;;;7.25;66.55;94532.59;5036945;28;20033;-85
2024/01/06 11:18:35;;;;;;;49.95;24.48;;;;;;;6.94;67.84;94544.28;5037963;28;20033;-86
2024/01/06 11:21:24;;;;;;;59.50;30.35;;;;;;;8.02;67.77;94668.56;5022918;28;20488;-85